sensor_id;sensor_type;location;lat;lon;timestamp;P1;durP1;ratioP1;P2;durP2;ratioP2
65377;SDS011;51982;51.042;13.806;2022-10-31T00:00:50;32.55;;;16.75;;
65377;SDS011;51982;51.042;13.806;2022-10-31T00:03:16;31.15;;;16.35;;
65377;SDS011;51982;51.042;13.806;2022-10-31T00:05:45;32.28;;;15.98;;
65377;SDS011;51982;51.042;13.806;2022-10-31T00:08:12;27.02;;;15.20;;
65377;SDS011;51982;51.042;13.806;2022-10-31T00:10:38;27.65;;;15.43;;
65377;SDS011;51982;51.042;13.806;2022-10-31T00:13:05;30.55;;;16.55;;
65377;SDS011;51982;51.042;13.806;2022-10-31T00:15:31;36.53;;;16.85;;
65377;SDS011;51982;51.042;13.806;2022-10-31T00:17:58;32.00;;;16.42;;
65377;SDS011;51982;51.042;13.806;2022-10-31T00:20:23;29.73;;;16.23;;
65377;SDS011;51982;51.042;13.806;2022-10-31T00:22:48;39.08;;;16.40;;
65377;SDS011;51982;51.042;13.806;2022-10-31T00:25:14;29.75;;;15.95;;
65377;SDS011;51982;51.042;13.806;2022-10-31T00:27:39;30.33;;;15.45;;
65377;SDS011;51982;51.042;13.806;2022-10-31T00:30:04;30.77;;;15.40;;
65377;SDS011;51982;51.042;13.806;2022-10-31T00:32:30;30.52;;;15.55;;
65377;SDS011;51982;51.042;13.806;2022-10-31T00:34:55;31.00;;;14.95;;
65377;SDS011;51982;51.042;13.806;2022-10-31T00:37:21;31.90;;;15.23;;
65377;SDS011;51982;51.042;13.806;2022-10-31T00:39:46;28.42;;;15.25;;
65377;SDS011;51982;51.042;13.806;2022-10-31T00:42:13;31.40;;;14.48;;
65377;SDS011;51982;51.042;13.806;2022-10-31T00:44:39;28.02;;;13.55;;
65377;SDS011;51982;51.042;13.806;2022-10-31T00:47:04;26.42;;;14.77;;
65377;SDS011;51982;51.042;13.806;2022-10-31T00:49:29;25.88;;;14.73;;
65377;SDS011;51982;51.042;13.806;2022-10-31T00:51:54;35.78;;;15.68;;
65377;SDS011;51982;51.042;13.806;2022-10-31T00:54:20;31.67;;;15.27;;
65377;SDS011;51982;51.042;13.806;2022-10-31T00:56:45;29.20;;;14.70;;
65377;SDS011;51982;51.042;13.806;2022-10-31T00:59:10;28.83;;;15.75;;
65377;SDS011;51982;51.042;13.806;2022-10-31T01:01:35;29.90;;;14.80;;
65377;SDS011;51982;51.042;13.806;2022-10-31T01:04:01;26.88;;;14.45;;
65377;SDS011;51982;51.042;13.806;2022-10-31T01:06:26;30.55;;;15.50;;
65377;SDS011;51982;51.042;13.806;2022-10-31T01:08:51;26.73;;;14.73;;
65377;SDS011;51982;51.042;13.806;2022-10-31T01:11:17;28.25;;;14.43;;
65377;SDS011;51982;51.042;13.806;2022-10-31T01:13:45;30.65;;;15.15;;
65377;SDS011;51982;51.042;13.806;2022-10-31T01:16:12;26.77;;;14.93;;
65377;SDS011;51982;51.042;13.806;2022-10-31T01:18:39;28.95;;;14.95;;
65377;SDS011;51982;51.042;13.806;2022-10-31T01:21:06;26.20;;;14.48;;
65377;SDS011;51982;51.042;13.806;2022-10-31T01:23:34;28.83;;;14.57;;
65377;SDS011;51982;51.042;13.806;2022-10-31T01:26:01;28.15;;;14.98;;
65377;SDS011;51982;51.042;13.806;2022-10-31T01:28:28;27.58;;;14.32;;
65377;SDS011;51982;51.042;13.806;2022-10-31T01:30:54;31.85;;;14.13;;
65377;SDS011;51982;51.042;13.806;2022-10-31T01:33:19;23.42;;;12.48;;
65377;SDS011;51982;51.042;13.806;2022-10-31T01:35:44;29.33;;;13.70;;
65377;SDS011;51982;51.042;13.806;2022-10-31T01:38:10;31.83;;;13.60;;
65377;SDS011;51982;51.042;13.806;2022-10-31T01:40:35;27.55;;;14.57;;
65377;SDS011;51982;51.042;13.806;2022-10-31T01:43:00;31.10;;;15.02;;
65377;SDS011;51982;51.042;13.806;2022-10-31T01:45:25;25.50;;;13.95;;
65377;SDS011;51982;51.042;13.806;2022-10-31T01:47:51;26.90;;;14.18;;
65377;SDS011;51982;51.042;13.806;2022-10-31T01:50:26;25.55;;;14.75;;
65377;SDS011;51982;51.042;13.806;2022-10-31T01:52:57;27.30;;;13.68;;
65377;SDS011;51982;51.042;13.806;2022-10-31T01:55:28;31.45;;;14.95;;
65377;SDS011;51982;51.042;13.806;2022-10-31T01:57:58;25.63;;;14.18;;
65377;SDS011;51982;51.042;13.806;2022-10-31T02:00:28;24.27;;;12.85;;
65377;SDS011;51982;51.042;13.806;2022-10-31T02:02:54;21.20;;;12.77;;
65377;SDS011;51982;51.042;13.806;2022-10-31T02:05:21;29.95;;;13.82;;
65377;SDS011;51982;51.042;13.806;2022-10-31T02:10:51;24.70;;;12.73;;
65377;SDS011;51982;51.042;13.806;2022-10-31T02:13:17;19.90;;;12.38;;
65377;SDS011;51982;51.042;13.806;2022-10-31T02:15:45;24.73;;;12.50;;
65377;SDS011;51982;51.042;13.806;2022-10-31T02:18:13;26.75;;;12.88;;
65377;SDS011;51982;51.042;13.806;2022-10-31T02:20:41;19.92;;;11.55;;
65377;SDS011;51982;51.042;13.806;2022-10-31T02:31:42;22.70;;;11.88;;
65377;SDS011;51982;51.042;13.806;2022-10-31T02:37:10;25.20;;;11.75;;
65377;SDS011;51982;51.042;13.806;2022-10-31T02:39:40;21.35;;;12.32;;
65377;SDS011;51982;51.042;13.806;2022-10-31T02:42:26;22.70;;;11.95;;
65377;SDS011;51982;51.042;13.806;2022-10-31T02:45:00;22.83;;;12.25;;
65377;SDS011;51982;51.042;13.806;2022-10-31T02:47:38;20.55;;;11.73;;
65377;SDS011;51982;51.042;13.806;2022-10-31T02:50:06;24.65;;;12.23;;
65377;SDS011;51982;51.042;13.806;2022-10-31T02:52:35;23.60;;;12.65;;
65377;SDS011;51982;51.042;13.806;2022-10-31T02:58:05;24.15;;;11.98;;
65377;SDS011;51982;51.042;13.806;2022-10-31T03:00:34;21.73;;;11.57;;
65377;SDS011;51982;51.042;13.806;2022-10-31T03:03:09;27.23;;;11.95;;
65377;SDS011;51982;51.042;13.806;2022-10-31T03:05:41;26.20;;;11.48;;
65377;SDS011;51982;51.042;13.806;2022-10-31T03:10:55;23.58;;;12.15;;
65377;SDS011;51982;51.042;13.806;2022-10-31T03:16:16;20.40;;;11.30;;
65377;SDS011;51982;51.042;13.806;2022-10-31T03:18:52;25.38;;;11.77;;
65377;SDS011;51982;51.042;13.806;2022-10-31T03:21:36;19.80;;;11.32;;
65377;SDS011;51982;51.042;13.806;2022-10-31T03:24:12;19.85;;;11.85;;
65377;SDS011;51982;51.042;13.806;2022-10-31T03:26:49;24.35;;;11.70;;
65377;SDS011;51982;51.042;13.806;2022-10-31T03:29:19;20.25;;;11.25;;
65377;SDS011;51982;51.042;13.806;2022-10-31T03:31:50;24.02;;;11.98;;
65377;SDS011;51982;51.042;13.806;2022-10-31T03:34:22;21.30;;;11.93;;
65377;SDS011;51982;51.042;13.806;2022-10-31T03:36:48;24.55;;;12.05;;
65377;SDS011;51982;51.042;13.806;2022-10-31T03:39:17;21.70;;;12.48;;
65377;SDS011;51982;51.042;13.806;2022-10-31T03:41:48;19.35;;;11.00;;
65377;SDS011;51982;51.042;13.806;2022-10-31T03:44:34;21.70;;;11.43;;
65377;SDS011;51982;51.042;13.806;2022-10-31T03:47:01;19.88;;;11.63;;
65377;SDS011;51982;51.042;13.806;2022-10-31T03:49:28;20.20;;;11.32;;
65377;SDS011;51982;51.042;13.806;2022-10-31T03:54:46;21.98;;;11.15;;
65377;SDS011;51982;51.042;13.806;2022-10-31T03:57:22;22.30;;;11.40;;
65377;SDS011;51982;51.042;13.806;2022-10-31T03:59:57;21.42;;;10.93;;
65377;SDS011;51982;51.042;13.806;2022-10-31T04:02:29;23.30;;;11.32;;
65377;SDS011;51982;51.042;13.806;2022-10-31T04:04:57;21.70;;;11.48;;
65377;SDS011;51982;51.042;13.806;2022-10-31T04:07:23;18.30;;;10.70;;
65377;SDS011;51982;51.042;13.806;2022-10-31T04:09:53;20.65;;;11.40;;
65377;SDS011;51982;51.042;13.806;2022-10-31T04:12:18;24.23;;;11.30;;
65377;SDS011;51982;51.042;13.806;2022-10-31T04:14:46;21.25;;;10.85;;
65377;SDS011;51982;51.042;13.806;2022-10-31T04:17:16;18.17;;;10.43;;
65377;SDS011;51982;51.042;13.806;2022-10-31T04:19:43;17.63;;;11.05;;
65377;SDS011;51982;51.042;13.806;2022-10-31T04:22:08;19.42;;;10.65;;
65377;SDS011;51982;51.042;13.806;2022-10-31T04:24:34;20.73;;;10.95;;
65377;SDS011;51982;51.042;13.806;2022-10-31T04:27:00;21.55;;;9.98;;
65377;SDS011;51982;51.042;13.806;2022-10-31T04:29:25;21.17;;;10.55;;
65377;SDS011;51982;51.042;13.806;2022-10-31T04:31:51;18.77;;;10.48;;
65377;SDS011;51982;51.042;13.806;2022-10-31T04:34:16;21.42;;;9.95;;
65377;SDS011;51982;51.042;13.806;2022-10-31T04:36:41;21.60;;;11.13;;
65377;SDS011;51982;51.042;13.806;2022-10-31T04:39:06;19.38;;;10.38;;
65377;SDS011;51982;51.042;13.806;2022-10-31T04:41:32;23.85;;;9.88;;
65377;SDS011;51982;51.042;13.806;2022-10-31T04:43:57;18.35;;;10.05;;
65377;SDS011;51982;51.042;13.806;2022-10-31T04:46:22;17.15;;;10.23;;
65377;SDS011;51982;51.042;13.806;2022-10-31T04:48:48;18.05;;;10.35;;
65377;SDS011;51982;51.042;13.806;2022-10-31T04:51:13;18.85;;;10.60;;
65377;SDS011;51982;51.042;13.806;2022-10-31T04:53:38;22.92;;;10.52;;
65377;SDS011;51982;51.042;13.806;2022-10-31T04:56:04;21.17;;;10.25;;
65377;SDS011;51982;51.042;13.806;2022-10-31T04:58:29;22.23;;;10.52;;
65377;SDS011;51982;51.042;13.806;2022-10-31T05:00:55;19.55;;;10.55;;
65377;SDS011;51982;51.042;13.806;2022-10-31T05:03:20;18.60;;;10.02;;
65377;SDS011;51982;51.042;13.806;2022-10-31T05:05:46;20.20;;;9.85;;
65377;SDS011;51982;51.042;13.806;2022-10-31T05:08:12;16.77;;;9.93;;
65377;SDS011;51982;51.042;13.806;2022-10-31T05:10:37;19.83;;;10.00;;
65377;SDS011;51982;51.042;13.806;2022-10-31T05:13:02;16.38;;;9.77;;
65377;SDS011;51982;51.042;13.806;2022-10-31T05:15:29;17.85;;;10.23;;
65377;SDS011;51982;51.042;13.806;2022-10-31T05:17:54;18.58;;;10.07;;
65377;SDS011;51982;51.042;13.806;2022-10-31T05:20:22;18.27;;;10.13;;
65377;SDS011;51982;51.042;13.806;2022-10-31T05:22:50;20.85;;;10.40;;
65377;SDS011;51982;51.042;13.806;2022-10-31T05:25:18;18.17;;;9.75;;
65377;SDS011;51982;51.042;13.806;2022-10-31T05:27:46;19.42;;;11.10;;
65377;SDS011;51982;51.042;13.806;2022-10-31T05:30:13;18.58;;;9.95;;
65377;SDS011;51982;51.042;13.806;2022-10-31T05:32:41;16.60;;;9.98;;
65377;SDS011;51982;51.042;13.806;2022-10-31T05:35:08;19.58;;;9.57;;
65377;SDS011;51982;51.042;13.806;2022-10-31T05:37:35;17.48;;;10.05;;
65377;SDS011;51982;51.042;13.806;2022-10-31T05:40:01;16.23;;;9.48;;
65377;SDS011;51982;51.042;13.806;2022-10-31T05:42:31;21.98;;;9.82;;
65377;SDS011;51982;51.042;13.806;2022-10-31T05:44:56;15.07;;;9.10;;
65377;SDS011;51982;51.042;13.806;2022-10-31T05:47:21;16.70;;;9.23;;
65377;SDS011;51982;51.042;13.806;2022-10-31T05:49:46;19.88;;;9.73;;
65377;SDS011;51982;51.042;13.806;2022-10-31T05:52:12;16.58;;;10.30;;
65377;SDS011;51982;51.042;13.806;2022-10-31T05:54:37;17.55;;;10.20;;
65377;SDS011;51982;51.042;13.806;2022-10-31T05:57:02;16.10;;;9.57;;
65377;SDS011;51982;51.042;13.806;2022-10-31T05:59:28;17.17;;;10.13;;
65377;SDS011;51982;51.042;13.806;2022-10-31T06:01:53;15.52;;;9.38;;
65377;SDS011;51982;51.042;13.806;2022-10-31T06:04:18;15.23;;;9.30;;
65377;SDS011;51982;51.042;13.806;2022-10-31T06:06:43;16.00;;;9.60;;
65377;SDS011;51982;51.042;13.806;2022-10-31T06:09:09;14.60;;;8.90;;
65377;SDS011;51982;51.042;13.806;2022-10-31T06:11:34;13.85;;;8.80;;
65377;SDS011;51982;51.042;13.806;2022-10-31T06:13:59;14.98;;;9.50;;
65377;SDS011;51982;51.042;13.806;2022-10-31T06:16:24;18.67;;;9.88;;
65377;SDS011;51982;51.042;13.806;2022-10-31T06:18:50;15.27;;;9.23;;
65377;SDS011;51982;51.042;13.806;2022-10-31T06:21:15;16.63;;;8.82;;
65377;SDS011;51982;51.042;13.806;2022-10-31T06:23:40;15.82;;;8.73;;
65377;SDS011;51982;51.042;13.806;2022-10-31T06:26:06;15.05;;;9.15;;
65377;SDS011;51982;51.042;13.806;2022-10-31T06:28:31;20.63;;;9.80;;
65377;SDS011;51982;51.042;13.806;2022-10-31T06:30:56;15.50;;;8.93;;
65377;SDS011;51982;51.042;13.806;2022-10-31T06:33:21;16.95;;;8.80;;
65377;SDS011;51982;51.042;13.806;2022-10-31T06:35:47;15.10;;;9.13;;
65377;SDS011;51982;51.042;13.806;2022-10-31T06:38:13;16.80;;;9.13;;
65377;SDS011;51982;51.042;13.806;2022-10-31T06:40:38;20.00;;;9.52;;
65377;SDS011;51982;51.042;13.806;2022-10-31T06:43:04;18.27;;;10.05;;
65377;SDS011;51982;51.042;13.806;2022-10-31T06:45:29;15.07;;;9.18;;
65377;SDS011;51982;51.042;13.806;2022-10-31T06:47:54;14.20;;;9.05;;
65377;SDS011;51982;51.042;13.806;2022-10-31T06:50:21;16.58;;;9.65;;
65377;SDS011;51982;51.042;13.806;2022-10-31T06:52:53;12.75;;;8.70;;
65377;SDS011;51982;51.042;13.806;2022-10-31T06:55:20;16.10;;;8.65;;
65377;SDS011;51982;51.042;13.806;2022-10-31T06:57:54;15.73;;;8.43;;
65377;SDS011;51982;51.042;13.806;2022-10-31T07:00:21;16.30;;;8.60;;
65377;SDS011;51982;51.042;13.806;2022-10-31T07:03:00;13.35;;;8.70;;
65377;SDS011;51982;51.042;13.806;2022-10-31T07:05:30;12.48;;;8.85;;
65377;SDS011;51982;51.042;13.806;2022-10-31T07:07:56;14.52;;;8.68;;
65377;SDS011;51982;51.042;13.806;2022-10-31T07:10:23;12.60;;;8.70;;
65377;SDS011;51982;51.042;13.806;2022-10-31T07:12:59;13.75;;;8.65;;
65377;SDS011;51982;51.042;13.806;2022-10-31T07:15:26;14.75;;;8.68;;
65377;SDS011;51982;51.042;13.806;2022-10-31T07:17:53;11.90;;;8.65;;
65377;SDS011;51982;51.042;13.806;2022-10-31T07:20:18;13.15;;;8.77;;
65377;SDS011;51982;51.042;13.806;2022-10-31T07:22:44;14.52;;;8.63;;
65377;SDS011;51982;51.042;13.806;2022-10-31T07:25:09;12.50;;;8.38;;
65377;SDS011;51982;51.042;13.806;2022-10-31T07:27:36;15.95;;;9.40;;
65377;SDS011;51982;51.042;13.806;2022-10-31T07:30:02;14.85;;;8.75;;
65377;SDS011;51982;51.042;13.806;2022-10-31T07:32:36;13.68;;;8.77;;
65377;SDS011;51982;51.042;13.806;2022-10-31T07:37:28;14.93;;;8.27;;
65377;SDS011;51982;51.042;13.806;2022-10-31T07:39:53;12.10;;;8.55;;
65377;SDS011;51982;51.042;13.806;2022-10-31T07:42:18;14.90;;;8.60;;
65377;SDS011;51982;51.042;13.806;2022-10-31T07:44:43;15.93;;;8.50;;
65377;SDS011;51982;51.042;13.806;2022-10-31T07:47:09;12.52;;;8.57;;
65377;SDS011;51982;51.042;13.806;2022-10-31T07:49:34;13.30;;;8.52;;
65377;SDS011;51982;51.042;13.806;2022-10-31T07:51:59;11.57;;;7.70;;
65377;SDS011;51982;51.042;13.806;2022-10-31T07:54:25;10.65;;;7.32;;
65377;SDS011;51982;51.042;13.806;2022-10-31T07:56:50;11.18;;;7.60;;
65377;SDS011;51982;51.042;13.806;2022-10-31T07:59:15;17.15;;;8.10;;
65377;SDS011;51982;51.042;13.806;2022-10-31T08:01:40;13.20;;;7.82;;
65377;SDS011;51982;51.042;13.806;2022-10-31T08:04:06;11.57;;;8.02;;
65377;SDS011;51982;51.042;13.806;2022-10-31T08:06:31;11.00;;;7.55;;
65377;SDS011;51982;51.042;13.806;2022-10-31T08:08:56;12.98;;;8.02;;
65377;SDS011;51982;51.042;13.806;2022-10-31T08:11:21;12.23;;;7.90;;
65377;SDS011;51982;51.042;13.806;2022-10-31T08:13:47;15.20;;;7.78;;
65377;SDS011;51982;51.042;13.806;2022-10-31T08:16:12;11.23;;;7.50;;
65377;SDS011;51982;51.042;13.806;2022-10-31T08:18:37;12.18;;;7.60;;
65377;SDS011;51982;51.042;13.806;2022-10-31T08:21:02;14.38;;;7.72;;
65377;SDS011;51982;51.042;13.806;2022-10-31T08:23:28;10.18;;;7.50;;
65377;SDS011;51982;51.042;13.806;2022-10-31T08:25:53;11.98;;;7.93;;
65377;SDS011;51982;51.042;13.806;2022-10-31T08:28:18;13.10;;;7.80;;
65377;SDS011;51982;51.042;13.806;2022-10-31T08:30:43;12.25;;;7.82;;
65377;SDS011;51982;51.042;13.806;2022-10-31T08:33:14;11.75;;;6.90;;
65377;SDS011;51982;51.042;13.806;2022-10-31T08:35:41;11.65;;;7.35;;
65377;SDS011;51982;51.042;13.806;2022-10-31T08:38:08;11.38;;;7.70;;
65377;SDS011;51982;51.042;13.806;2022-10-31T08:40:35;13.52;;;8.13;;
65377;SDS011;51982;51.042;13.806;2022-10-31T08:43:01;12.90;;;8.07;;
65377;SDS011;51982;51.042;13.806;2022-10-31T08:45:28;13.40;;;7.82;;
65377;SDS011;51982;51.042;13.806;2022-10-31T08:47:59;13.75;;;8.02;;
65377;SDS011;51982;51.042;13.806;2022-10-31T08:50:26;11.13;;;7.50;;
65377;SDS011;51982;51.042;13.806;2022-10-31T08:52:52;12.43;;;7.43;;
65377;SDS011;51982;51.042;13.806;2022-10-31T08:55:17;10.52;;;7.03;;
65377;SDS011;51982;51.042;13.806;2022-10-31T08:57:43;13.60;;;7.18;;
65377;SDS011;51982;51.042;13.806;2022-10-31T09:00:08;10.70;;;7.35;;
65377;SDS011;51982;51.042;13.806;2022-10-31T09:02:34;10.60;;;7.05;;
65377;SDS011;51982;51.042;13.806;2022-10-31T09:04:59;11.93;;;7.85;;
65377;SDS011;51982;51.042;13.806;2022-10-31T09:07:24;9.88;;;6.65;;
65377;SDS011;51982;51.042;13.806;2022-10-31T09:09:50;11.95;;;7.20;;
65377;SDS011;51982;51.042;13.806;2022-10-31T09:12:15;12.48;;;6.82;;
65377;SDS011;51982;51.042;13.806;2022-10-31T09:14:40;11.63;;;7.00;;
65377;SDS011;51982;51.042;13.806;2022-10-31T09:17:05;12.18;;;7.20;;
65377;SDS011;51982;51.042;13.806;2022-10-31T09:19:31;10.68;;;7.07;;
65377;SDS011;51982;51.042;13.806;2022-10-31T09:21:56;9.85;;;6.68;;
65377;SDS011;51982;51.042;13.806;2022-10-31T09:24:21;12.02;;;7.35;;
65377;SDS011;51982;51.042;13.806;2022-10-31T09:26:47;13.15;;;6.72;;
65377;SDS011;51982;51.042;13.806;2022-10-31T09:29:12;12.75;;;6.25;;
65377;SDS011;51982;51.042;13.806;2022-10-31T09:31:37;13.00;;;6.57;;
65377;SDS011;51982;51.042;13.806;2022-10-31T09:34:03;11.88;;;6.68;;
65377;SDS011;51982;51.042;13.806;2022-10-31T09:36:28;11.80;;;6.78;;
65377;SDS011;51982;51.042;13.806;2022-10-31T09:38:53;10.40;;;6.47;;
65377;SDS011;51982;51.042;13.806;2022-10-31T09:44:12;10.60;;;6.43;;
65377;SDS011;51982;51.042;13.806;2022-10-31T09:49:50;10.35;;;6.35;;
65377;SDS011;51982;51.042;13.806;2022-10-31T09:52:23;9.07;;;5.85;;
65377;SDS011;51982;51.042;13.806;2022-10-31T09:55:06;13.35;;;6.15;;
65377;SDS011;51982;51.042;13.806;2022-10-31T09:57:38;12.82;;;5.95;;
65377;SDS011;51982;51.042;13.806;2022-10-31T10:00:06;13.10;;;6.07;;
65377;SDS011;51982;51.042;13.806;2022-10-31T10:05:53;11.88;;;5.43;;
65377;SDS011;51982;51.042;13.806;2022-10-31T10:08:18;9.55;;;5.78;;
65377;SDS011;51982;51.042;13.806;2022-10-31T10:10:48;17.92;;;8.43;;
65377;SDS011;51982;51.042;13.806;2022-10-31T10:16:41;9.70;;;5.68;;
65377;SDS011;51982;51.042;13.806;2022-10-31T10:30:39;11.48;;;4.78;;
65377;SDS011;51982;51.042;13.806;2022-10-31T10:33:09;10.63;;;4.72;;
65377;SDS011;51982;51.042;13.806;2022-10-31T10:35:42;10.00;;;5.00;;
65377;SDS011;51982;51.042;13.806;2022-10-31T10:38:15;7.70;;;4.93;;
65377;SDS011;51982;51.042;13.806;2022-10-31T10:40:44;10.55;;;4.70;;
65377;SDS011;51982;51.042;13.806;2022-10-31T10:43:21;8.65;;;4.78;;
65377;SDS011;51982;51.042;13.806;2022-10-31T10:45:52;8.48;;;4.47;;
65377;SDS011;51982;51.042;13.806;2022-10-31T10:48:52;8.43;;;4.53;;
65377;SDS011;51982;51.042;13.806;2022-10-31T10:51:40;10.88;;;4.30;;
65377;SDS011;51982;51.042;13.806;2022-10-31T10:54:12;10.27;;;4.60;;
65377;SDS011;51982;51.042;13.806;2022-10-31T10:59:25;17.02;;;4.85;;
65377;SDS011;51982;51.042;13.806;2022-10-31T11:01:51;8.30;;;4.43;;
65377;SDS011;51982;51.042;13.806;2022-10-31T11:09:29;12.63;;;5.00;;
65377;SDS011;51982;51.042;13.806;2022-10-31T11:11:55;12.02;;;4.80;;
65377;SDS011;51982;51.042;13.806;2022-10-31T11:14:21;10.02;;;5.55;;
65377;SDS011;51982;51.042;13.806;2022-10-31T11:16:49;10.65;;;6.47;;
65377;SDS011;51982;51.042;13.806;2022-10-31T11:19:19;14.13;;;5.63;;
65377;SDS011;51982;51.042;13.806;2022-10-31T11:21:50;14.75;;;5.10;;
65377;SDS011;51982;51.042;13.806;2022-10-31T11:24:17;11.82;;;5.05;;
65377;SDS011;51982;51.042;13.806;2022-10-31T11:26:45;15.07;;;5.45;;
65377;SDS011;51982;51.042;13.806;2022-10-31T11:29:13;12.23;;;5.65;;
65377;SDS011;51982;51.042;13.806;2022-10-31T11:31:39;13.38;;;6.65;;
65377;SDS011;51982;51.042;13.806;2022-10-31T11:34:06;20.90;;;7.75;;
65377;SDS011;51982;51.042;13.806;2022-10-31T11:36:39;21.73;;;7.68;;
65377;SDS011;51982;51.042;13.806;2022-10-31T11:39:16;22.40;;;9.15;;
65377;SDS011;51982;51.042;13.806;2022-10-31T11:41:45;16.50;;;7.03;;
65377;SDS011;51982;51.042;13.806;2022-10-31T11:44:20;18.77;;;7.78;;
65377;SDS011;51982;51.042;13.806;2022-10-31T11:46:54;17.95;;;7.55;;
65377;SDS011;51982;51.042;13.806;2022-10-31T11:52:08;15.85;;;7.07;;
65377;SDS011;51982;51.042;13.806;2022-10-31T11:57:28;17.13;;;6.70;;
65377;SDS011;51982;51.042;13.806;2022-10-31T11:59:56;21.17;;;7.68;;
65377;SDS011;51982;51.042;13.806;2022-10-31T12:02:23;16.33;;;7.55;;
65377;SDS011;51982;51.042;13.806;2022-10-31T12:05:35;16.45;;;6.97;;
65377;SDS011;51982;51.042;13.806;2022-10-31T12:07:43;19.10;;;7.20;;
65377;SDS011;51982;51.042;13.806;2022-10-31T12:10:11;17.70;;;7.03;;
65377;SDS011;51982;51.042;13.806;2022-10-31T12:15:18;19.70;;;6.38;;
65377;SDS011;51982;51.042;13.806;2022-10-31T12:20:21;18.10;;;6.70;;
65377;SDS011;51982;51.042;13.806;2022-10-31T12:31:21;15.93;;;5.40;;
65377;SDS011;51982;51.042;13.806;2022-10-31T12:33:56;12.32;;;5.22;;
65377;SDS011;51982;51.042;13.806;2022-10-31T12:36:31;14.77;;;5.18;;
65377;SDS011;51982;51.042;13.806;2022-10-31T12:39:16;16.98;;;5.15;;
65377;SDS011;51982;51.042;13.806;2022-10-31T12:45:07;15.13;;;6.53;;
65377;SDS011;51982;51.042;13.806;2022-10-31T12:47:54;22.63;;;9.90;;
65377;SDS011;51982;51.042;13.806;2022-10-31T12:53:05;15.05;;;4.95;;
65377;SDS011;51982;51.042;13.806;2022-10-31T12:58:17;10.33;;;4.20;;
65377;SDS011;51982;51.042;13.806;2022-10-31T13:00:51;11.95;;;4.25;;
65377;SDS011;51982;51.042;13.806;2022-10-31T13:03:29;9.77;;;3.65;;
65377;SDS011;51982;51.042;13.806;2022-10-31T13:05:59;13.80;;;3.95;;
65377;SDS011;51982;51.042;13.806;2022-10-31T13:08:50;10.55;;;3.42;;
65377;SDS011;51982;51.042;13.806;2022-10-31T13:11:20;10.57;;;3.97;;
65377;SDS011;51982;51.042;13.806;2022-10-31T13:13:54;9.98;;;3.42;;
65377;SDS011;51982;51.042;13.806;2022-10-31T13:16:28;12.15;;;3.95;;
65377;SDS011;51982;51.042;13.806;2022-10-31T13:19:03;10.75;;;3.20;;
65377;SDS011;51982;51.042;13.806;2022-10-31T13:21:41;13.43;;;3.78;;
65377;SDS011;51982;51.042;13.806;2022-10-31T13:24:10;8.63;;;3.75;;
65377;SDS011;51982;51.042;13.806;2022-10-31T13:26:56;9.20;;;4.10;;
65377;SDS011;51982;51.042;13.806;2022-10-31T13:29:31;8.38;;;3.78;;
65377;SDS011;51982;51.042;13.806;2022-10-31T13:32:18;9.20;;;4.30;;
65377;SDS011;51982;51.042;13.806;2022-10-31T13:34:45;10.85;;;3.97;;
65377;SDS011;51982;51.042;13.806;2022-10-31T13:37:17;8.88;;;3.85;;
65377;SDS011;51982;51.042;13.806;2022-10-31T13:54:40;11.85;;;4.00;;
65377;SDS011;51982;51.042;13.806;2022-10-31T13:57:19;16.20;;;4.60;;
65377;SDS011;51982;51.042;13.806;2022-10-31T14:02:47;9.15;;;4.35;;
65377;SDS011;51982;51.042;13.806;2022-10-31T14:05:33;9.35;;;4.05;;
65377;SDS011;51982;51.042;13.806;2022-10-31T14:08:01;12.00;;;4.30;;
65377;SDS011;51982;51.042;13.806;2022-10-31T14:10:34;8.65;;;3.90;;
65377;SDS011;51982;51.042;13.806;2022-10-31T14:13:24;8.57;;;4.05;;
65377;SDS011;51982;51.042;13.806;2022-10-31T14:15:57;11.75;;;4.05;;
65377;SDS011;51982;51.042;13.806;2022-10-31T14:18:28;14.48;;;4.63;;
65377;SDS011;51982;51.042;13.806;2022-10-31T14:20:57;12.25;;;4.15;;
65377;SDS011;51982;51.042;13.806;2022-10-31T14:23:38;8.90;;;4.35;;
65377;SDS011;51982;51.042;13.806;2022-10-31T14:28:57;15.82;;;4.65;;
65377;SDS011;51982;51.042;13.806;2022-10-31T14:39:41;13.43;;;4.68;;
65377;SDS011;51982;51.042;13.806;2022-10-31T14:42:32;14.50;;;5.10;;
65377;SDS011;51982;51.042;13.806;2022-10-31T14:47:56;14.33;;;5.10;;
65377;SDS011;51982;51.042;13.806;2022-10-31T14:50:50;10.32;;;4.30;;
65377;SDS011;51982;51.042;13.806;2022-10-31T14:55:57;11.07;;;5.03;;
65377;SDS011;51982;51.042;13.806;2022-10-31T14:58:27;12.32;;;4.95;;
65377;SDS011;51982;51.042;13.806;2022-10-31T15:00:58;33.35;;;18.10;;
65377;SDS011;51982;51.042;13.806;2022-10-31T15:03:26;38.53;;;19.30;;
65377;SDS011;51982;51.042;13.806;2022-10-31T15:06:11;13.73;;;6.15;;
65377;SDS011;51982;51.042;13.806;2022-10-31T15:08:39;14.90;;;6.07;;
65377;SDS011;51982;51.042;13.806;2022-10-31T15:11:16;13.10;;;5.38;;
65377;SDS011;51982;51.042;13.806;2022-10-31T15:16:16;20.38;;;5.05;;
65377;SDS011;51982;51.042;13.806;2022-10-31T15:18:52;14.98;;;5.90;;
65377;SDS011;51982;51.042;13.806;2022-10-31T15:21:19;15.32;;;5.22;;
65377;SDS011;51982;51.042;13.806;2022-10-31T15:23:46;15.13;;;4.90;;
65377;SDS011;51982;51.042;13.806;2022-10-31T15:26:19;16.88;;;7.28;;
65377;SDS011;51982;51.042;13.806;2022-10-31T15:28:56;19.23;;;7.70;;
65377;SDS011;51982;51.042;13.806;2022-10-31T15:31:27;15.23;;;7.93;;
65377;SDS011;51982;51.042;13.806;2022-10-31T15:33:55;20.58;;;8.07;;
65377;SDS011;51982;51.042;13.806;2022-10-31T15:36:25;17.05;;;7.47;;
65377;SDS011;51982;51.042;13.806;2022-10-31T15:38:52;15.55;;;8.15;;
65377;SDS011;51982;51.042;13.806;2022-10-31T15:41:39;22.38;;;7.30;;
65377;SDS011;51982;51.042;13.806;2022-10-31T15:46:57;19.58;;;8.18;;
65377;SDS011;51982;51.042;13.806;2022-10-31T15:50:17;18.52;;;8.35;;
65377;SDS011;51982;51.042;13.806;2022-10-31T15:52:17;23.20;;;8.65;;
65377;SDS011;51982;51.042;13.806;2022-10-31T15:54:54;20.48;;;9.23;;
65377;SDS011;51982;51.042;13.806;2022-10-31T15:57:23;17.58;;;8.68;;
65377;SDS011;51982;51.042;13.806;2022-10-31T15:59:51;20.50;;;8.95;;
65377;SDS011;51982;51.042;13.806;2022-10-31T16:02:19;20.58;;;9.68;;
65377;SDS011;51982;51.042;13.806;2022-10-31T16:04:56;15.73;;;10.25;;
65377;SDS011;51982;51.042;13.806;2022-10-31T16:07:23;21.40;;;11.15;;
65377;SDS011;51982;51.042;13.806;2022-10-31T16:12:37;22.50;;;10.30;;
65377;SDS011;51982;51.042;13.806;2022-10-31T16:15:16;24.25;;;11.20;;
65377;SDS011;51982;51.042;13.806;2022-10-31T16:17:43;20.00;;;10.82;;
65377;SDS011;51982;51.042;13.806;2022-10-31T16:20:25;21.63;;;10.52;;
65377;SDS011;51982;51.042;13.806;2022-10-31T16:22:52;23.13;;;10.25;;
65377;SDS011;51982;51.042;13.806;2022-10-31T16:25:32;15.50;;;9.93;;
65377;SDS011;51982;51.042;13.806;2022-10-31T16:28:02;21.75;;;9.80;;
65377;SDS011;51982;51.042;13.806;2022-10-31T16:30:31;20.90;;;11.15;;
65377;SDS011;51982;51.042;13.806;2022-10-31T16:33:04;22.20;;;10.80;;
65377;SDS011;51982;51.042;13.806;2022-10-31T16:35:34;19.15;;;10.80;;
65377;SDS011;51982;51.042;13.806;2022-10-31T16:38:01;30.42;;;14.23;;
65377;SDS011;51982;51.042;13.806;2022-10-31T16:40:27;23.42;;;12.40;;